Main page
METAR-TAF:

METAR-TAF

Airports :

Sharjah International Airport

Sharjah, United Arab Emirates

latitude: 25-20N, longitude: 055-31E, elevation: 35 m

Current weather observation

The report was made 22 minutes ago, at 10:00 UTC
Wind 9 kt from the Northwest
Temperature 29°C
Humidity 52%
Pressure 1014 hPa
Visibility 10 km or more
no clouds below 1500 m and no cumulonimbus

METAR: OMSJ 191000Z 31009KT CAVOK 29/18 Q1014

Time: 14:22 (10:22 UTC)

Forecast

The report was made 5 hours and 23 minutes ago, at 04:59 UTC
Forecast valid from 19 at 06 UTC to 20 at 12 UTC
Wind 5 kt from the South
Visibility 10 km or more
Scattered clouds at a height of 4000 ft
Becoming
from 19 at 06 UTC to 19 at 08 UTC
Wind 10 kt from the West
Becoming
from 19 at 15 UTC to 19 at 17 UTC
Wind 5 kt from the South
Becoming
from 20 at 07 UTC to 20 at 09 UTC
Wind 10 kt from the West

TAF: OMSJ 190459Z 1906/2012 18005KT 9999 SCT040 BECMG 1906/1908 28010KT BECMG 1915/1917 17005KT BECMG 2007/2009 28010KT

Weather observations and forecasts of more than 4000 airports (METAR and TAF reports).

The available stations are represented by yellow and red dots on the map.

Hover mouse over dot to see the name of the station.

Then click to see weather observations and forecasts.

To change the map : click on the green buttons with a black cross to zoom in, on the green button with a dash to zoom out, or on the green arrows for adjacent maps.


METAR-TAF: